Wroxall, United Kingdom
Current Conditions -  °F | °C
As of 8:50 PM on Thursday 20 Nov 2014 (Local Time) from EGBE Reporting Station
Moderate Fog Moderate Fog  
Wind Chill: 39°   Ceiling: 200
Heat Index: 43°   Visibility: 0.15mi
Dew Point: 43°   Wind: 7mph
Humidity: 100%   Direction: 70°ENE
Pressure: 30.27"   Gusts: NA
Location:  52.34°N, 1.67°W
Report Text: EGBE 202050Z 07006KT 040V100 0250 R05/1200 FG BKN002 06/06 Q1025
Loading
Personal Weather Stations






























Interactive Weather Map New forecast layout! Learn more

10-Day Weather Forecast

Advertisements
Track Severe Weather on mobile